Station History

Weather Underground - logo

Station Historical Data
Daily Summary for May 18, 2018 Units:  English    Metric   Both
« Previous Day
Next Day »
Daily Weekly Monthly Yearly Custom
  High: Low: Average:
Temperature: 85.0 °F 55.3 °F 70.7 °F
Dew Point: 60.4 °F 50.1 °F 55.5 °F
Humidity: 86 % 37 % 61 %
Wind Speed: 6.9 mph 0.0 mph 1.3 mph
Wind Gust: 6.9 mph - -
Wind:- - SW
Pressure: 29.95 in 29.81 in -
Precipitation: 0.00 in    
Historical Graphs
 
 
Tabular Data for May 18, 2018
Time Temperature Dew Point Pressure Wind Wind Speed Wind Gust Humidity Rainfall Rate (Hourly)
00:03 62.2 °F 53.1 °F 29.89 in Calm     72 % 0.00 in
00:08 61.8 °F 53.1 °F 29.89 in Calm     73 % 0.00 in
00:13 61.5 °F 53.1 °F 29.89 in Calm     74 % 0.00 in
00:18 61.2 °F 53.2 °F 29.89 in Calm     75 % 0.00 in
00:23 61.0 °F 53.4 °F 29.89 in Calm     76 % 0.00 in
00:28 60.8 °F 53.2 °F 29.89 in Calm     76 % 0.00 in
00:33 60.7 °F 53.4 °F 29.89 in Calm     77 % 0.00 in
00:38 60.5 °F 52.9 °F 29.89 in Calm     76 % 0.00 in
00:43 60.7 °F 52.4 °F 29.89 in Calm     74 % 0.00 in
00:48 60.8 °F 52.5 °F 29.89 in Calm     74 % 0.00 in
00:53 60.7 °F 52.4 °F 29.89 in Calm     74 % 0.00 in
00:58 60.7 °F 52.0 °F 29.89 in Calm     73 % 0.00 in
01:03 60.6 °F 52.6 °F 29.89 in Calm     75 % 0.00 in
01:08 60.2 °F 52.2 °F 29.89 in Calm     75 % 0.00 in
01:13 60.0 °F 52.4 °F 29.89 in Calm     76 % 0.00 in
01:18 59.8 °F 52.6 °F 29.89 in Calm     77 % 0.00 in
01:23 59.6 °F 52.7 °F 29.89 in Calm     78 % 0.00 in
01:28 59.5 °F 52.6 °F 29.89 in Calm     78 % 0.00 in
01:33 59.3 °F 52.8 °F 29.89 in Calm     79 % 0.00 in
01:38 59.1 °F 52.9 °F 29.89 in Calm     80 % 0.00 in
01:44 59.0 °F 52.5 °F 29.89 in Calm     79 % 0.00 in
01:49 59.0 °F 52.1 °F 29.89 in Calm     78 % 0.00 in
01:54 59.0 °F 52.1 °F 29.89 in Calm     78 % 0.00 in
01:59 59.1 °F 52.2 °F 29.89 in Calm     78 % 0.00 in
02:04 59.0 °F 52.1 °F 29.89 in Calm     78 % 0.00 in
02:14 58.8 °F 52.3 °F 29.89 in Calm     79 % 0.00 in
02:19 58.8 °F 52.3 °F 29.89 in Calm     79 % 0.00 in
02:24 58.9 °F 52.1 °F 29.89 in Calm     78 % 0.00 in
02:29 59.1 °F 52.2 °F 29.89 in Calm     78 % 0.00 in
02:34 59.3 °F 52.1 °F 29.89 in Calm     77 % 0.00 in
02:39 59.3 °F 52.4 °F 29.89 in Calm     78 % 0.00 in
02:44 59.2 °F 52.0 °F 29.89 in Calm     77 % 0.00 in
02:49 59.3 °F 51.7 °F 29.89 in Calm     76 % 0.00 in
02:54 59.5 °F 51.9 °F 29.89 in Calm     76 % 0.00 in
02:55 59.5 °F 51.9 °F 29.89 in Calm     76 % 0.00 in
03:00 59.4 °F 52.5 °F 29.89 in Calm     78 % 0.00 in
03:05 59.1 °F 52.2 °F 29.89 in Calm     78 % 0.00 in
03:10 58.7 °F 52.2 °F 29.89 in Calm     79 % 0.00 in
03:15 58.4 °F 52.3 °F 29.89 in Calm     80 % 0.00 in
03:20 58.0 °F 51.9 °F 29.89 in Calm     80 % 0.00 in
03:25 57.9 °F 51.8 °F 29.89 in Calm     80 % 0.00 in
03:30 57.7 °F 51.2 °F 29.89 in Calm     79 % 0.00 in
03:35 57.5 °F 51.0 °F 29.89 in Calm     79 % 0.00 in
03:41 57.5 °F 51.0 °F 29.89 in Calm     79 % 0.00 in
03:46 57.6 °F 50.8 °F 29.89 in Calm     78 % 0.00 in
03:51 57.6 °F 50.4 °F 29.89 in Calm     77 % 0.00 in
03:56 57.7 °F 50.5 °F 29.89 in Calm     77 % 0.00 in
04:01 57.8 °F 50.3 °F 29.89 in Calm     76 % 0.00 in
04:06 57.7 °F 50.2 °F 29.89 in Calm     76 % 0.00 in
04:11 57.6 °F 50.1 °F 29.89 in Calm     76 % 0.00 in
04:16 57.5 °F 50.3 °F 29.90 in Calm     77 % 0.00 in
04:21 57.6 °F 51.1 °F 29.90 in Calm     79 % 0.00 in
04:26 57.8 °F 51.7 °F 29.90 in Calm     80 % 0.00 in
04:31 57.7 °F 51.2 °F 29.90 in Calm     79 % 0.00 in
04:36 58.0 °F 50.8 °F 29.89 in Calm     77 % 0.00 in
04:41 58.1 °F 50.9 °F 29.89 in Calm     77 % 0.00 in
04:46 57.9 °F 51.1 °F 29.89 in ENE 1.2 mph   78 % 0.00 in
04:51 57.4 °F 50.9 °F 29.90 in Calm     79 % 0.00 in
04:56 57.2 °F 51.8 °F 29.90 in Calm     82 % 0.00 in
05:01 57.2 °F 52.4 °F 29.90 in Calm     84 % 0.00 in
05:06 57.2 °F 52.4 °F 29.90 in Calm     84 % 0.00 in
05:11 57.1 °F 52.3 °F 29.90 in Calm     84 % 0.00 in
05:16 57.1 °F 52.0 °F 29.90 in Calm     83 % 0.00 in
05:21 57.2 °F 52.1 °F 29.90 in Calm     83 % 0.00 in
05:26 57.0 °F 51.6 °F 29.90 in Calm     82 % 0.00 in
05:31 57.0 °F 51.6 °F 29.89 in Calm   0.1 mph 82 % 0.00 in
05:36 56.9 °F 51.5 °F 29.90 in Calm     82 % 0.00 in
05:41 56.8 °F 51.4 °F 29.89 in Calm     82 % 0.00 in
05:46 56.8 °F 51.4 °F 29.90 in Calm     82 % 0.00 in
05:51 56.7 °F 51.3 °F 29.90 in Calm     82 % 0.00 in
05:56 56.8 °F 51.0 °F 29.90 in Calm     81 % 0.00 in
06:01 56.8 °F 51.0 °F 29.89 in Calm     81 % 0.00 in
06:06 56.7 °F 50.9 °F 29.89 in Calm     81 % 0.00 in
06:11 56.4 °F 51.0 °F 29.90 in Calm     82 % 0.00 in
06:17 56.1 °F 51.0 °F 29.90 in Calm     83 % 0.00 in
06:22 55.9 °F 50.8 °F 29.90 in Calm     83 % 0.00 in
06:27 55.6 °F 50.8 °F 29.90 in Calm     84 % 0.00 in
06:32 55.3 °F 50.9 °F 29.91 in Calm     85 % 0.00 in
06:37 55.3 °F 50.9 °F 29.91 in Calm     85 % 0.00 in
06:42 55.3 °F 51.2 °F 29.91 in Calm     86 % 0.00 in
06:47 55.4 °F 51.0 °F 29.91 in Calm     85 % 0.00 in
06:52 55.7 °F 51.3 °F 29.91 in Calm     85 % 0.00 in
06:57 55.9 °F 51.5 °F 29.91 in Calm     85 % 0.00 in
07:02 56.3 °F 51.8 °F 29.92 in Calm     85 % 0.00 in
07:07 56.7 °F 51.9 °F 29.92 in Calm     84 % 0.00 in
07:12 57.1 °F 52.0 °F 29.92 in Calm     83 % 0.00 in
07:17 57.4 °F 51.9 °F 29.92 in Calm     82 % 0.00 in
07:22 57.8 °F 52.7 °F 29.92 in Calm     83 % 0.00 in
07:27 58.0 °F 52.5 °F 29.93 in Calm     82 % 0.00 in
07:32 58.5 °F 52.7 °F 29.93 in East 1.2 mph   81 % 0.00 in
07:37 59.6 °F 53.8 °F 29.93 in Calm     81 % 0.00 in
07:42 60.5 °F 53.6 °F 29.93 in East 1.2 mph   78 % 0.00 in
07:47 60.8 °F 53.9 °F 29.93 in WNW 1.2 mph   78 % 0.00 in
07:52 61.4 °F 54.5 °F 29.93 in Calm     78 % 0.00 in
07:57 62.6 °F 54.6 °F 29.94 in SSW 1.2 mph   75 % 0.00 in
08:02 63.5 °F 54.7 °F 29.94 in Calm     73 % 0.00 in
08:07 63.7 °F 54.5 °F 29.94 in Calm     72 % 0.00 in
08:12 64.3 °F 55.5 °F 29.94 in SE 1.2 mph 1.2 mph 73 % 0.00 in
08:17 64.9 °F 54.5 °F 29.94 in Calm     69 % 0.00 in
08:22 65.3 °F 55.3 °F 29.94 in SE 1.2 mph 1.2 mph 70 % 0.00 in
08:27 65.6 °F 55.5 °F 29.94 in Calm     70 % 0.00 in
08:32 65.8 °F 55.3 °F 29.94 in SSW 2.3 mph 2.3 mph 69 % 0.00 in
08:37 65.7 °F 54.8 °F 29.94 in SE 1.2 mph 1.2 mph 68 % 0.00 in
08:42 65.8 °F 55.3 °F 29.94 in East 1.2 mph 1.2 mph 69 % 0.00 in
08:47 66.3 °F 55.4 °F 29.95 in ESE 3.5 mph 3.5 mph 68 % 0.00 in
08:52 66.4 °F 55.1 °F 29.95 in East 2.3 mph 2.3 mph 67 % 0.00 in
08:57 67.2 °F 56.3 °F 29.95 in Calm     68 % 0.00 in
09:02 68.1 °F 56.3 °F 29.94 in South 2.3 mph 2.3 mph 66 % 0.00 in
09:07 68.5 °F 56.3 °F 29.94 in Calm     65 % 0.00 in
09:12 68.7 °F 56.0 °F 29.94 in NW 1.2 mph 1.2 mph 64 % 0.00 in
09:17 68.9 °F 56.6 °F 29.94 in SE 1.2 mph 1.2 mph 65 % 0.00 in
09:22 69.3 °F 56.6 °F 29.94 in SE 3.5 mph 3.5 mph 64 % 0.00 in
09:27 69.6 °F 57.3 °F 29.93 in Calm     65 % 0.00 in
09:32 70.1 °F 56.9 °F 29.93 in SE 3.5 mph 3.5 mph 63 % 0.00 in
09:37 70.1 °F 56.5 °F 29.93 in WSW 2.3 mph 2.3 mph 62 % 0.00 in
09:42 70.6 °F 56.5 °F 29.93 in South 3.5 mph 3.5 mph 61 % 0.00 in
09:47 70.8 °F 57.1 °F 29.93 in SW 2.3 mph 2.3 mph 62 % 0.00 in
09:52 71.3 °F 58.1 °F 29.93 in SSW 1.2 mph   63 % 0.00 in
09:57 71.9 °F 57.3 °F 29.93 in SE 2.0 mph 2.0 mph 60 % 0.00 in
10:02 72.3 °F 56.7 °F 29.93 in NNW 2.3 mph 2.3 mph 58 % 0.00 in
10:08 72.4 °F 56.8 °F 29.93 in West 1.2 mph 1.2 mph 58 % 0.00 in
10:13 72.7 °F 57.5 °F 29.93 in SSW 1.2 mph 1.2 mph 59 % 0.00 in
10:18 73.3 °F 58.1 °F 29.93 in SSE 3.5 mph 3.5 mph 59 % 0.00 in
10:23 73.5 °F 58.3 °F 29.93 in SE 3.5 mph 3.5 mph 59 % 0.00 in
10:28 73.6 °F 57.4 °F 29.93 in East 4.0 mph 4.0 mph 57 % 0.00 in
10:33 73.7 °F 58.5 °F 29.93 in SSW 2.3 mph 2.3 mph 59 % 0.00 in
10:38 73.8 °F 59.0 °F 29.93 in East 3.5 mph 3.5 mph 60 % 0.00 in
10:43 74.0 °F 57.8 °F 29.92 in NW 2.3 mph 2.3 mph 57 % 0.00 in
10:48 74.3 °F 58.1 °F 29.92 in NNW 2.3 mph 2.3 mph 57 % 0.00 in
10:53 74.9 °F 59.1 °F 29.92 in NNW 1.2 mph 1.2 mph 58 % 0.00 in
10:58 75.0 °F 58.7 °F 29.92 in SSW 1.2 mph 1.2 mph 57 % 0.00 in
11:03 75.6 °F 58.3 °F 29.92 in SSE 5.8 mph 5.8 mph 55 % 0.00 in
11:08 75.6 °F 58.3 °F 29.92 in SE 6.9 mph 6.9 mph 55 % 0.00 in
11:13 75.5 °F 58.2 °F 29.92 in East 3.5 mph 3.5 mph 55 % 0.00 in
11:18 75.5 °F 58.7 °F 29.92 in South 2.3 mph 2.3 mph 56 % 0.00 in
11:23 76.0 °F 58.7 °F 29.92 in NW 2.3 mph 2.3 mph 55 % 0.00 in
11:28 76.9 °F 58.5 °F 29.92 in SE 1.2 mph 1.2 mph 53 % 0.00 in
11:33 77.0 °F 58.6 °F 29.92 in NW 2.3 mph 2.3 mph 53 % 0.00 in
11:38 76.6 °F 58.2 °F 29.92 in NNW 1.2 mph 1.2 mph 53 % 0.00 in
11:43 76.4 °F 58.0 °F 29.91 in ENE 2.3 mph 2.3 mph 53 % 0.00 in
11:48 76.4 °F 59.5 °F 29.91 in ENE 2.3 mph 2.3 mph 56 % 0.00 in
11:53 77.3 °F 58.8 °F 29.90 in NNE 1.2 mph 1.2 mph 53 % 0.00 in
11:58 77.8 °F 58.8 °F 29.90 in SSE 3.5 mph 3.5 mph 52 % 0.00 in
12:03 78.4 °F 60.4 °F 29.90 in ENE 3.5 mph 3.5 mph 54 % 0.00 in
12:08 78.2 °F 58.6 °F 29.90 in NNW 3.5 mph 3.5 mph 51 % 0.00 in
12:13 77.5 °F 57.4 °F 29.90 in West 4.6 mph 4.6 mph 50 % 0.00 in
12:18 77.3 °F 58.3 °F 29.89 in SE 1.2 mph 1.2 mph 52 % 0.00 in
12:23 77.9 °F 59.4 °F 29.89 in NE 2.3 mph 2.3 mph 53 % 0.00 in
12:28 78.4 °F 58.8 °F 29.89 in NNW 3.5 mph 3.5 mph 51 % 0.00 in
12:33 78.7 °F 59.0 °F 29.89 in WNW 1.2 mph   51 % 0.00 in
12:38 79.1 °F 57.7 °F 29.89 in NE 3.5 mph 3.5 mph 48 % 0.00 in
12:43 78.9 °F 58.1 °F 29.89 in West 3.5 mph 3.5 mph 49 % 0.00 in
12:48 78.9 °F 58.7 °F 29.88 in NW 2.0 mph 2.0 mph 50 % 0.00 in
12:53 79.1 °F 58.3 °F 29.88 in NNW 1.2 mph 1.2 mph 49 % 0.00 in
12:58 79.1 °F 58.3 °F 29.88 in WNW 2.3 mph 2.3 mph 49 % 0.00 in
13:03 79.3 °F 58.5 °F 29.88 in SE 2.0 mph 2.0 mph 49 % 0.00 in
13:08 80.0 °F 58.5 °F 29.88 in NW 3.5 mph 3.5 mph 48 % 0.00 in
13:13 80.2 °F 58.1 °F 29.88 in NW 2.3 mph 2.3 mph 47 % 0.00 in
13:18 80.2 °F 57.5 °F 29.88 in NNW 3.5 mph 3.5 mph 46 % 0.00 in
13:23 80.2 °F 56.9 °F 29.87 in NNW 5.8 mph 5.8 mph 45 % 0.00 in
13:28 80.3 °F 57.6 °F 29.87 in NW 3.5 mph 3.5 mph 46 % 0.00 in
13:33 81.1 °F 59.0 °F 29.87 in NE 2.3 mph 2.3 mph 47 % 0.00 in
13:38 81.8 °F 57.8 °F 29.87 in NW 3.5 mph 3.5 mph 44 % 0.00 in
13:43 81.7 °F 57.0 °F 29.87 in WNW 3.5 mph 3.5 mph 43 % 0.00 in
13:48 82.0 °F 56.6 °F 29.87 in NW 4.6 mph 4.6 mph 42 % 0.00 in
13:53 82.1 °F 56.1 °F 29.87 in NNW 3.5 mph 3.5 mph 41 % 0.00 in
13:58 82.2 °F 56.2 °F 29.87 in NW 2.3 mph 2.3 mph 41 % 0.00 in
14:03 82.8 °F 56.7 °F 29.87 in NW 2.3 mph 2.3 mph 41 % 0.00 in
14:08 82.4 °F 55.7 °F 29.87 in WNW 2.3 mph 2.3 mph 40 % 0.00 in
14:13 82.4 °F 56.3 °F 29.86 in NW 3.5 mph 3.5 mph 41 % 0.00 in
14:18 82.2 °F 55.5 °F 29.87 in NE 3.5 mph 3.5 mph 40 % 0.00 in
14:23 82.2 °F 56.2 °F 29.87 in West 4.6 mph 4.6 mph 41 % 0.00 in
14:28 82.1 °F 56.1 °F 29.87 in WNW 3.5 mph 3.5 mph 41 % 0.00 in
14:33 82.7 °F 55.9 °F 29.86 in NNE 5.8 mph 5.8 mph 40 % 0.00 in
14:38 82.3 °F 56.2 °F 29.87 in WNW 4.6 mph 4.6 mph 41 % 0.00 in
14:43 82.5 °F 55.7 °F 29.86 in WNW 2.0 mph 2.0 mph 40 % 0.00 in
14:48 82.8 °F 56.0 °F 29.86 in West 3.5 mph 3.5 mph 40 % 0.00 in
14:53 82.7 °F 56.6 °F 29.86 in WNW 6.0 mph 6.0 mph 41 % 0.00 in
14:58 82.7 °F 55.9 °F 29.86 in NW 4.0 mph 4.0 mph 40 % 0.00 in
15:03 82.3 °F 54.9 °F 29.86 in NW 2.3 mph 2.3 mph 39 % 0.00 in
15:08 82.4 °F 55.7 °F 29.86 in WSW 3.5 mph 3.5 mph 40 % 0.00 in
15:13 82.8 °F 57.4 °F 29.86 in NW 3.5 mph 3.5 mph 42 % 0.00 in
15:18 83.0 °F 55.5 °F 29.85 in WSW 3.5 mph 3.5 mph 39 % 0.00 in
15:23 83.3 °F 55.8 °F 29.85 in NNW 2.3 mph 2.3 mph 39 % 0.00 in
15:28 83.6 °F 56.0 °F 29.85 in NW 4.0 mph 4.0 mph 39 % 0.00 in
15:33 83.2 °F 55.0 °F 29.85 in NW 3.5 mph 3.5 mph 38 % 0.00 in
15:38 82.8 °F 54.6 °F 29.85 in WNW 2.3 mph 2.3 mph 38 % 0.00 in
15:43 82.8 °F 54.6 °F 29.84 in WNW 3.5 mph 3.5 mph 38 % 0.00 in
15:49 83.0 °F 56.2 °F 29.84 in NNW 3.5 mph 3.5 mph 40 % 0.00 in
15:54 83.0 °F 55.5 °F 29.84 in WNW 5.8 mph 5.8 mph 39 % 0.00 in
15:59 83.1 °F 56.3 °F 29.84 in WNW 3.5 mph 3.5 mph 40 % 0.00 in
16:04 83.2 °F 55.7 °F 29.84 in NW 2.3 mph 2.3 mph 39 % 0.00 in
16:09 82.9 °F 54.7 °F 29.84 in NNW 3.5 mph 3.5 mph 38 % 0.00 in
16:14 83.3 °F 55.8 °F 29.83 in NW 2.3 mph 2.3 mph 39 % 0.00 in
16:19 83.5 °F 56.6 °F 29.83 in NW 4.0 mph 4.0 mph 40 % 0.00 in
16:24 84.1 °F 57.2 °F 29.83 in Calm     40 % 0.00 in
16:29 84.2 °F 55.8 °F 29.83 in NW 2.0 mph 2.0 mph 38 % 0.00 in
16:34 84.0 °F 56.4 °F 29.83 in East 3.5 mph 3.5 mph 39 % 0.00 in
16:39 83.8 °F 56.2 °F 29.83 in WNW 2.3 mph 2.3 mph 39 % 0.00 in
16:44 84.4 °F 56.0 °F 29.82 in ENE 3.0 mph 3.0 mph 38 % 0.00 in
16:49 84.4 °F 56.0 °F 29.82 in West 2.0 mph 2.0 mph 38 % 0.00 in
16:54 84.6 °F 56.2 °F 29.82 in NE 1.2 mph 1.2 mph 38 % 0.00 in
16:58 84.9 °F 57.9 °F 29.82 in Calm     40 % 0.00 in
17:03 84.9 °F 56.5 °F 29.82 in East 3.5 mph 3.5 mph 38 % 0.00 in
17:08 85.0 °F 56.5 °F 29.82 in SSW 3.5 mph 3.5 mph 38 % 0.00 in
17:09 85.0 °F 57.3 °F 29.82 in NW 3.5 mph 3.5 mph 39 % 0.00 in
17:14 85.0 °F 56.5 °F 29.82 in West 1.2 mph   38 % 0.00 in
17:19 85.0 °F 56.5 °F 29.82 in NW 3.5 mph 3.5 mph 38 % 0.00 in
17:24 84.1 °F 55.7 °F 29.82 in NW 4.6 mph 4.6 mph 38 % 0.00 in
17:29 83.6 °F 54.6 °F 29.82 in NW 3.5 mph 3.5 mph 37 % 0.00 in
17:34 83.8 °F 56.2 °F 29.81 in North 3.5 mph 3.5 mph 39 % 0.00 in
17:39 83.8 °F 56.2 °F 29.81 in NNW 1.2 mph 1.2 mph 39 % 0.00 in
17:44 84.4 °F 56.0 °F 29.81 in WNW 3.5 mph 3.5 mph 38 % 0.00 in
17:49 84.3 °F 56.6 °F 29.81 in NW 2.3 mph 2.3 mph 39 % 0.00 in
17:54 84.3 °F 55.9 °F 29.81 in NNW 2.3 mph 2.3 mph 38 % 0.00 in
17:59 84.2 °F 56.6 °F 29.81 in NW 2.3 mph 2.3 mph 39 % 0.00 in
18:04 83.8 °F 55.5 °F 29.81 in WNW 4.6 mph 4.6 mph 38 % 0.00 in
18:09 83.7 °F 56.1 °F 29.81 in NW 2.3 mph 2.3 mph 39 % 0.00 in
18:14 83.4 °F 55.8 °F 29.81 in WNW 3.5 mph 3.5 mph 39 % 0.00 in
18:19 83.0 °F 55.5 °F 29.81 in NNW 3.5 mph 3.5 mph 39 % 0.00 in
18:24 83.2 °F 55.7 °F 29.81 in WNW 1.2 mph 1.2 mph 39 % 0.00 in
18:30 83.0 °F 55.5 °F 29.81 in NW 2.3 mph 2.3 mph 39 % 0.00 in
18:35 82.5 °F 55.7 °F 29.81 in NW 3.5 mph 3.5 mph 40 % 0.00 in
18:40 82.0 °F 56.6 °F 29.81 in West 2.3 mph 2.3 mph 42 % 0.00 in
18:45 81.5 °F 56.2 °F 29.81 in WNW 2.3 mph 2.3 mph 42 % 0.00 in
18:50 81.3 °F 56.0 °F 29.81 in NNW 2.0 mph 2.0 mph 42 % 0.00 in
18:55 81.2 °F 56.6 °F 29.81 in WNW 1.2 mph   43 % 0.00 in
19:00 81.0 °F 56.4 °F 29.81 in North 2.3 mph 2.3 mph 43 % 0.00 in
19:05 80.6 °F 56.0 °F 29.81 in Calm   0.4 mph 43 % 0.00 in
19:10 80.2 °F 56.3 °F 29.81 in Calm     44 % 0.00 in
19:15 80.0 °F 56.7 °F 29.81 in Calm     45 % 0.00 in
19:20 79.5 °F 56.3 °F 29.81 in Calm     45 % 0.00 in
19:25 79.1 °F 57.1 °F 29.81 in Calm     47 % 0.00 in
19:30 78.7 °F 56.8 °F 29.81 in Calm     47 % 0.00 in
19:35 78.3 °F 57.0 °F 29.81 in Calm     48 % 0.00 in
19:40 78.1 °F 56.8 °F 29.81 in Calm     48 % 0.00 in
19:41 78.1 °F 56.8 °F 29.81 in Calm     48 % 0.00 in
19:46 77.8 °F 57.7 °F 29.81 in Calm     50 % 0.00 in
19:51 77.5 °F 58.5 °F 29.81 in Calm     52 % 0.00 in
19:56 77.0 °F 58.6 °F 29.81 in Calm     53 % 0.00 in
20:01 76.5 °F 57.6 °F 29.81 in Calm     52 % 0.00 in
20:06 76.1 °F 57.2 °F 29.81 in Calm     52 % 0.00 in
20:11 75.9 °F 58.6 °F 29.81 in Calm     55 % 0.00 in
20:16 75.6 °F 58.8 °F 29.81 in Calm     56 % 0.00 in
20:21 75.1 °F 58.3 °F 29.82 in Calm     56 % 0.00 in
20:26 74.5 °F 58.8 °F 29.81 in Calm     58 % 0.00 in
20:31 74.0 °F 58.8 °F 29.82 in Calm     59 % 0.00 in
20:36 73.7 °F 59.9 °F 29.82 in Calm     62 % 0.00 in
20:41 73.3 °F 59.0 °F 29.82 in Calm     61 % 0.00 in
20:46 73.1 °F 58.8 °F 29.82 in Calm     61 % 0.00 in
20:51 73.0 °F 58.8 °F 29.82 in Calm     61 % 0.00 in
20:56 73.2 °F 58.0 °F 29.82 in SW 1.2 mph 1.2 mph 59 % 0.00 in
21:01 73.3 °F 57.6 °F 29.82 in SW 1.2 mph 1.2 mph 58 % 0.00 in
21:06 73.4 °F 57.2 °F 29.82 in Calm     57 % 0.00 in
21:11 73.4 °F 57.2 °F 29.83 in Calm     57 % 0.00 in
21:16 73.4 °F 57.7 °F 29.83 in Calm     58 % 0.00 in
21:21 73.2 °F 57.5 °F 29.83 in Calm     58 % 0.00 in
21:26 73.1 °F 57.4 °F 29.83 in Calm     58 % 0.00 in
21:31 72.9 °F 57.7 °F 29.83 in Calm     59 % 0.00 in
21:37 72.8 °F 58.1 °F 29.83 in Calm     60 % 0.00 in
21:42 72.6 °F 57.9 °F 29.83 in Calm     60 % 0.00 in
21:47 72.3 °F 58.1 °F 29.83 in Calm     61 % 0.00 in
21:52 71.9 °F 58.6 °F 29.83 in Calm     63 % 0.00 in
21:57 71.5 °F 58.2 °F 29.83 in Calm     63 % 0.00 in
22:02 71.5 °F 58.2 °F 29.83 in Calm     63 % 0.00 in
22:07 71.5 °F 58.2 °F 29.83 in Calm     63 % 0.00 in
22:12 71.6 °F 58.3 °F 29.84 in WNW 1.2 mph   63 % 0.00 in
22:17 71.6 °F 58.3 °F 29.84 in Calm     63 % 0.00 in
22:22 71.8 °F 58.1 °F 29.84 in North 1.2 mph 1.2 mph 62 % 0.00 in
22:27 72.0 °F 58.3 °F 29.84 in Calm     62 % 0.00 in
22:32 71.9 °F 58.2 °F 29.84 in North 1.2 mph 1.2 mph 62 % 0.00 in
22:37 71.9 °F 58.2 °F 29.84 in NW 1.2 mph   62 % 0.00 in
22:42 71.8 °F 58.1 °F 29.84 in Calm     62 % 0.00 in
22:47 71.6 °F 58.3 °F 29.84 in Calm     63 % 0.00 in
22:52 71.5 °F 58.2 °F 29.84 in Calm     63 % 0.00 in
22:57 71.5 °F 58.2 °F 29.84 in NNW 1.2 mph   63 % 0.00 in
23:02 71.5 °F 58.2 °F 29.84 in NW 1.2 mph   63 % 0.00 in
23:07 71.6 °F 58.3 °F 29.84 in Calm     63 % 0.00 in
23:12 71.5 °F 58.7 °F 29.85 in Calm     64 % 0.00 in
23:17 71.2 °F 59.7 °F 29.84 in Calm     67 % 0.00 in
23:22 70.6 °F 58.7 °F 29.85 in Calm     66 % 0.00 in
23:27 70.0 °F 59.0 °F 29.85 in Calm     68 % 0.00 in
23:33 69.3 °F 58.7 °F 29.84 in Calm     69 % 0.00 in
23:38 68.8 °F 58.2 °F 29.84 in Calm     69 % 0.00 in
23:43 68.7 °F 58.5 °F 29.84 in Calm     70 % 0.00 in
23:48 68.9 °F 58.7 °F 29.85 in Calm     70 % 0.00 in
23:53 69.2 °F 58.2 °F 29.85 in Calm     68 % 0.00 in
23:58 69.3 °F 58.3 °F 29.85 in Calm     68 % 0.00 in
Park Place, Exeter, Tulare County, California, USA
Compliments of Weather Underground - 2.75 mb